Time;durP1;ratioP1;P1;durP2;ratioP2;P2;SDS_P1;SDS_P2;PMS_P1;PMS_P2;Temp;Humidity;BMP_temperature;BMP_pressure;BME280_temperature;BME280_humidity;BME280_pressure;Samples;Min_cycle;Max_cycle;Signal;HPM_P1;HPM_P2
2023/06/16 00:00:11;;;;;;;6.03;4.20;;;18.20;94.10;;;;;;7838188;28;20667;-89
2023/06/16 00:03:58;;;;;;;6.53;3.95;;;18.10;94.10;;;;;;7810380;28;20181;-88
2023/06/16 00:07:44;;;;;;;6.22;4.32;;;18.10;94.20;;;;;;7824396;28;20179;-89
2023/06/16 00:11:29;;;;;;;6.88;4.20;;;18.10;94.30;;;;;;7820547;28;20209;-89
2023/06/16 00:15:15;;;;;;;6.05;4.30;;;18.10;94.40;;;;;;7795014;28;20213;-90
2023/06/16 00:19:00;;;;;;;5.75;4.72;;;18.00;94.50;;;;;;7803934;28;20653;-89
2023/06/16 00:22:47;;;;;;;6.45;4.28;;;18.00;94.60;;;;;;7818822;28;20213;-89
2023/06/16 00:26:34;;;;;;;7.00;4.60;;;17.90;94.60;;;;;;7820788;28;20202;-88
2023/06/16 00:30:22;;;;;;;8.45;4.65;;;17.90;94.70;;;;;;7824361;28;20253;-89
2023/06/16 00:34:08;;;;;;;8.38;4.70;;;17.80;94.70;;;;;;7828494;28;20580;-89
2023/06/16 00:37:53;;;;;;;7.20;4.60;;;17.80;94.80;;;;;;7811163;28;20175;-89
2023/06/16 00:41:39;;;;;;;5.25;4.25;;;17.70;94.90;;;;;;7810084;28;20183;-88
2023/06/16 00:45:25;;;;;;;8.40;5.20;;;17.60;95.00;;;;;;7811395;28;20233;-89
2023/06/16 00:49:10;;;;;;;9.50;5.32;;;17.60;95.00;;;;;;7806675;28;20187;-89
2023/06/16 00:52:56;;;;;;;7.82;4.63;;;17.60;95.10;;;;;;7823054;28;20555;-89
2023/06/16 00:56:43;;;;;;;9.55;5.18;;;17.50;95.20;;;;;;7835873;28;20218;-89
2023/06/16 01:00:28;;;;;;;7.75;4.63;;;17.50;95.30;;;;;;7818957;28;20183;-88
2023/06/16 01:04:15;;;;;;;8.30;4.57;;;17.40;95.30;;;;;;7824906;28;20198;-87
2023/06/16 01:08:09;;;;;;;7.78;4.85;;;17.40;95.40;;;;;;7825912;28;20187;-88
2023/06/16 01:11:55;;;;;;;5.82;4.25;;;17.40;95.40;;;;;;7807667;28;20293;-89
2023/06/16 01:15:43;;;;;;;7.35;4.40;;;17.30;95.50;;;;;;7822923;28;20203;-89
2023/06/16 01:19:39;;;;;;;8.60;4.88;;;17.30;95.50;;;;;;7833511;28;20210;-89
2023/06/16 01:23:56;;;;;;;5.25;4.00;;;17.20;95.60;;;;;;7824657;28;20194;-89
2023/06/16 01:27:47;;;;;;;6.65;4.57;;;17.20;95.80;;;;;;7809534;28;20175;-89
2023/06/16 01:31:34;;;;;;;7.68;4.30;;;17.20;96.00;;;;;;7813756;28;20203;-88
2023/06/16 01:35:22;;;;;;;7.03;5.00;;;17.20;96.00;;;;;;7789747;28;20214;-89
2023/06/16 01:39:09;;;;;;;8.32;4.90;;;17.20;96.10;;;;;;7813977;28;20205;-88
2023/06/16 01:42:56;;;;;;;7.75;4.40;;;17.20;96.20;;;;;;7824949;28;20186;-89
2023/06/16 01:46:43;;;;;;;6.40;4.63;;;17.20;96.20;;;;;;7820991;28;20213;-89
2023/06/16 01:50:30;;;;;;;6.22;4.68;;;17.20;96.30;;;;;;7808549;28;20230;-89
2023/06/16 01:54:15;;;;;;;7.72;4.43;;;17.10;96.50;;;;;;7825157;28;20202;-90
2023/06/16 01:58:01;;;;;;;7.15;4.50;;;17.10;96.60;;;;;;7809241;28;20190;-91
2023/06/16 02:01:55;;;;;;;6.03;4.05;;;17.10;96.70;;;;;;7803232;28;20178;-89
2023/06/16 02:05:44;;;;;;;8.43;4.85;;;17.00;96.80;;;;;;7825579;28;20202;-89
2023/06/16 02:09:31;;;;;;;6.90;5.10;;;17.00;96.90;;;;;;7824552;28;20565;-89
2023/06/16 02:13:17;;;;;;;5.13;4.50;;;17.00;96.90;;;;;;7829532;28;20204;-89
2023/06/16 02:17:12;;;;;;;8.27;4.75;;;17.00;97.00;;;;;;7827498;28;20190;-88
2023/06/16 02:20:59;;;;;;;8.38;4.45;;;17.00;97.00;;;;;;7824165;28;20586;-89
2023/06/16 02:24:44;;;;;;;7.30;4.80;;;16.90;97.10;;;;;;7827655;28;20210;-89
2023/06/16 02:28:30;;;;;;;5.50;4.25;;;16.90;97.30;;;;;;7832623;28;20190;-89
2023/06/16 02:32:16;;;;;;;6.95;4.57;;;16.90;97.40;;;;;;7808006;28;20248;-89
2023/06/16 02:36:01;;;;;;;8.38;4.75;;;16.80;97.40;;;;;;7847481;22;20228;-89
2023/06/16 02:39:47;;;;;;;8.93;4.10;;;16.70;97.50;;;;;;7854968;28;20182;-89
2023/06/16 02:43:34;;;;;;;10.13;4.43;;;16.70;97.60;;;;;;7838186;28;20201;-89
2023/06/16 02:47:19;;;;;;;8.15;4.05;;;16.60;97.70;;;;;;7838009;28;20203;-89
2023/06/16 02:51:05;;;;;;;8.82;4.18;;;16.60;97.70;;;;;;7826422;28;20214;-89
2023/06/16 02:54:51;;;;;;;9.38;4.10;;;16.50;97.80;;;;;;7820129;28;20182;-89
2023/06/16 02:58:36;;;;;;;9.30;4.68;;;16.50;97.90;;;;;;7818621;28;20792;-89
2023/06/16 03:02:22;;;;;;;6.75;4.68;;;16.50;97.90;;;;;;7809106;28;20783;-90
2023/06/16 03:06:08;;;;;;;6.32;4.75;;;16.50;98.00;;;;;;7809797;28;20186;-89
2023/06/16 03:09:55;;;;;;;7.05;4.60;;;16.40;98.10;;;;;;7815923;28;20863;-89
2023/06/16 03:13:41;;;;;;;10.02;4.50;;;16.40;98.30;;;;;;7825845;28;20198;-90
2023/06/16 03:17:27;;;;;;;8.20;4.72;;;16.40;98.30;;;;;;7810915;28;20873;-89
2023/06/16 03:21:15;;;;;;;8.98;4.80;;;16.40;98.40;;;;;;7815039;28;20742;-88
2023/06/16 03:25:02;;;;;;;5.97;4.82;;;16.40;98.30;;;;;;7806344;28;20175;-89
2023/06/16 03:28:47;;;;;;;7.15;5.03;;;16.40;98.20;;;;;;7809504;28;20186;-89
2023/06/16 03:32:33;;;;;;;6.20;4.57;;;16.40;98.20;;;;;;7805775;28;20217;-89
2023/06/16 03:36:19;;;;;;;9.07;5.53;;;16.40;98.70;;;;;;7806474;28;20202;-89
2023/06/16 03:40:06;;;;;;;8.50;5.38;;;16.30;98.20;;;;;;7808061;28;20190;-89
2023/06/16 03:43:51;;;;;;;6.25;4.55;;;16.00;98.90;;;;;;7805955;28;20186;-90
2023/06/16 03:47:37;;;;;;;7.38;4.90;;;16.00;99.10;;;;;;7805597;28;20182;-89
2023/06/16 03:51:24;;;;;;;7.70;4.35;;;16.00;99.40;;;;;;7801061;28;20289;-90
2023/06/16 03:55:11;;;;;;;6.10;5.05;;;16.00;99.30;;;;;;7804599;28;20181;-88
2023/06/16 03:58:57;;;;;;;8.20;4.85;;;16.10;99.40;;;;;;7805416;28;20182;-89
2023/06/16 04:02:44;;;;;;;6.72;4.88;;;16.00;99.40;;;;;;7803876;28;20238;-89
2023/06/16 04:06:32;;;;;;;7.18;5.22;;;16.10;99.60;;;;;;7805107;28;20185;-90
2023/06/16 04:10:19;;;;;;;7.40;4.70;;;16.00;99.90;;;;;;7804389;28;20202;-88
2023/06/16 04:14:06;;;;;;;8.02;5.53;;;15.80;99.90;;;;;;7804635;28;20232;-89
2023/06/16 04:17:51;;;;;;;8.30;5.68;;;15.90;99.90;;;;;;7804304;28;20170;-84
2023/06/16 04:21:37;;;;;;;13.38;5.47;;;15.90;99.90;;;;;;7811427;28;20278;-88
2023/06/16 04:25:24;;;;;;;9.70;5.82;;;15.80;99.90;;;;;;7803955;28;20228;-88
2023/06/16 04:29:14;;;;;;;9.40;5.80;;;15.80;99.90;;;;;;7803824;28;20258;-87
2023/06/16 04:33:01;;;;;;;7.35;5.13;;;15.80;99.90;;;;;;7803625;28;20202;-88
2023/06/16 04:36:49;;;;;;;7.95;4.72;;;15.70;99.90;;;;;;7804434;28;20240;-88
2023/06/16 04:40:36;;;;;;;11.55;5.80;;;15.80;99.90;;;;;;7803257;28;20204;-88
2023/06/16 04:44:22;;;;;;;6.90;5.35;;;15.80;99.90;;;;;;7833209;28;20182;-88
2023/06/16 04:48:08;;;;;;;9.85;5.88;;;15.70;99.90;;;;;;7822081;28;20255;-88
2023/06/16 04:51:55;;;;;;;8.77;5.07;;;15.70;99.90;;;;;;7805788;28;20221;-88
2023/06/16 04:55:41;;;;;;;8.95;5.22;;;15.60;99.90;;;;;;7814807;28;20607;-88
2023/06/16 04:59:26;;;;;;;8.13;5.60;;;15.70;99.90;;;;;;7803322;28;20175;-88
2023/06/16 05:03:12;;;;;;;9.73;5.75;;;15.70;99.90;;;;;;7802542;28;20198;-85
2023/06/16 05:06:58;;;;;;;11.95;6.30;;;15.70;99.90;;;;;;7802536;28;20191;-87
2023/06/16 05:10:44;;;;;;;10.57;6.28;;;15.80;99.90;;;;;;7805962;28;20206;-89
2023/06/16 05:14:30;;;;;;;8.40;5.90;;;15.70;99.90;;;;;;7805894;28;20182;-89
2023/06/16 05:18:15;;;;;;;11.77;6.15;;;15.70;99.90;;;;;;7808729;28;20186;-89
2023/06/16 05:22:01;;;;;;;12.50;6.63;;;15.70;99.90;;;;;;7840662;22;20750;-88
2023/06/16 05:25:47;;;;;;;13.85;6.47;;;15.70;99.90;;;;;;7840283;28;20255;-88
2023/06/16 05:29:32;;;;;;;9.57;5.97;;;15.60;99.90;;;;;;7837124;28;20524;-87
2023/06/16 05:33:18;;;;;;;12.77;5.88;;;15.70;99.90;;;;;;7839884;28;20206;-88
2023/06/16 05:37:04;;;;;;;14.25;5.68;;;15.70;99.90;;;;;;7842546;28;20231;-88
2023/06/16 05:40:50;;;;;;;10.70;6.45;;;15.80;99.90;;;;;;7849700;28;20174;-88
2023/06/16 05:44:35;;;;;;;11.60;5.82;;;15.90;99.90;;;;;;7843378;28;20544;-89
2023/06/16 05:48:21;;;;;;;7.30;5.90;;;16.00;99.90;;;;;;7840610;28;20273;-88
2023/06/16 05:52:07;;;;;;;7.03;5.80;;;16.20;99.90;;;;;;7841960;28;20292;-88
2023/06/16 05:55:53;;;;;;;10.15;6.15;;;16.20;99.90;;;;;;7839731;28;20681;-88
2023/06/16 05:59:38;;;;;;;8.50;5.07;;;16.30;99.90;;;;;;7839950;28;20655;-89
2023/06/16 06:03:24;;;;;;;8.65;5.35;;;16.40;99.90;;;;;;7846268;28;20196;-88
2023/06/16 06:07:09;;;;;;;10.70;5.60;;;16.60;99.90;;;;;;7863579;28;20184;-89
2023/06/16 06:10:55;;;;;;;8.30;6.03;;;16.70;99.90;;;;;;7837771;28;20289;-89
2023/06/16 06:14:41;;;;;;;13.15;6.25;;;16.90;99.90;;;;;;7837923;28;20200;-88
2023/06/16 06:18:26;;;;;;;8.43;6.43;;;16.90;99.90;;;;;;7839135;28;20174;-88
2023/06/16 06:22:12;;;;;;;8.80;6.50;;;17.00;99.90;;;;;;7837040;28;20217;-89
2023/06/16 06:25:58;;;;;;;10.52;5.97;;;17.10;99.90;;;;;;7837680;28;20182;-88
2023/06/16 06:29:43;;;;;;;9.50;6.60;;;17.30;99.90;;;;;;7839066;28;20193;-88
2023/06/16 06:33:29;;;;;;;8.00;6.13;;;17.40;99.90;;;;;;7837274;28;20248;-89
2023/06/16 06:37:18;;;;;;;10.95;6.97;;;17.40;99.90;;;;;;7837630;28;20178;-88
2023/06/16 06:41:16;;;;;;;10.68;6.43;;;17.40;99.90;;;;;;7869716;28;20200;-82
2023/06/16 06:45:02;;;;;;;8.27;5.82;;;17.70;99.90;;;;;;7842950;28;20166;-86
2023/06/16 06:48:48;;;;;;;7.68;5.45;;;18.10;99.60;;;;;;7839548;28;20182;-90
2023/06/16 06:52:33;;;;;;;10.07;6.47;;;18.50;98.50;;;;;;7839534;28;20328;-86
2023/06/16 06:56:20;;;;;;;7.40;5.80;;;18.70;97.30;;;;;;7839498;28;20170;-86
2023/06/16 07:00:10;;;;;;;10.88;5.57;;;18.90;97.10;;;;;;7837414;28;20178;-87
2023/06/16 07:03:55;;;;;;;10.27;5.85;;;19.10;96.90;;;;;;7838040;28;20209;-87
2023/06/16 07:07:41;;;;;;;8.63;5.40;;;19.30;95.70;;;;;;7824101;28;20192;-87
2023/06/16 07:11:27;;;;;;;9.40;5.70;;;19.50;94.60;;;;;;7830986;28;20213;-86
2023/06/16 07:15:12;;;;;;;8.45;5.70;;;19.70;94.30;;;;;;7825472;28;20187;-86
2023/06/16 07:19:00;;;;;;;7.60;6.13;;;19.80;93.70;;;;;;7836476;28;20193;-86
2023/06/16 07:22:45;;;;;;;10.68;5.80;;;19.90;92.90;;;;;;7835565;28;20228;-87
2023/06/16 07:26:45;;;;;;;9.55;6.10;;;19.90;92.90;;;;;;7955947;27;20904;-86
2023/06/16 07:30:31;;;;;;;7.65;6.00;;;20.00;92.90;;;;;;7951694;28;20209;-86
2023/06/16 07:34:17;;;;;;;12.13;6.30;;;20.10;92.70;;;;;;7952650;27;20687;-87
2023/06/16 07:38:02;;;;;;;10.70;6.40;;;20.30;92.90;;;;;;7958884;28;20183;-86
2023/06/16 07:41:48;;;;;;;10.05;6.70;;;20.50;92.50;;;;;;7960997;28;20199;-80
2023/06/16 07:45:34;;;;;;;10.57;6.53;;;20.70;92.20;;;;;;7942721;28;20626;-83
2023/06/16 07:49:20;;;;;;;9.90;6.43;;;20.70;93.60;;;;;;7954514;28;20647;-87
2023/06/16 07:53:05;;;;;;;10.85;6.97;;;20.90;92.40;;;;;;7960318;27;20188;-89
2023/06/16 07:56:51;;;;;;;23.55;7.40;;;20.80;91.80;;;;;;7950522;28;20189;-90
2023/06/16 08:00:37;;;;;;;13.48;6.43;;;20.70;92.10;;;;;;7959318;27;20259;-90
2023/06/16 08:04:45;;;;;;;11.23;6.40;;;20.60;91.60;;;;;;7956462;27;20598;-89
2023/06/16 08:08:32;;;;;;;41.78;7.63;;;20.30;91.90;;;;;;7957040;28;20172;-89
2023/06/16 08:12:18;;;;;;;11.32;7.03;;;20.40;92.40;;;;;;7958359;28;20248;-83
2023/06/16 08:16:05;;;;;;;10.45;6.28;;;20.40;91.90;;;;;;7955565;28;20183;-83
2023/06/16 08:19:52;;;;;;;13.15;7.10;;;20.20;92.60;;;;;;7925136;28;20172;-83
2023/06/16 08:23:38;;;;;;;8.95;6.35;;;20.20;93.00;;;;;;7974514;27;20284;-84
2023/06/16 08:27:25;;;;;;;13.55;7.18;;;20.30;93.60;;;;;;7973480;27;20183;-86
2023/06/16 08:31:11;;;;;;;15.55;6.38;;;20.20;92.90;;;;;;7955871;28;20171;-83
2023/06/16 08:34:57;;;;;;;10.40;6.63;;;20.20;93.40;;;;;;7951021;28;20253;-86
2023/06/16 08:38:43;;;;;;;12.43;6.82;;;20.20;92.40;;;;;;7926025;28;20176;-91
2023/06/16 08:42:30;;;;;;;8.35;6.53;;;20.40;93.30;;;;;;7925783;28;20211;-85
2023/06/16 08:46:15;;;;;;;11.07;6.30;;;20.50;92.40;;;;;;7937236;28;20557;-90
2023/06/16 08:50:02;;;;;;;8.63;6.28;;;20.60;93.00;;;;;;7920673;28;20172;-89
2023/06/16 08:53:49;;;;;;;17.83;10.02;;;20.70;92.50;;;;;;7934188;28;20204;-90
2023/06/16 08:57:43;;;;;;;13.70;8.57;;;20.80;92.20;;;;;;7934653;28;20187;-89
2023/06/16 09:01:30;;;;;;;10.32;6.82;;;20.70;92.30;;;;;;7924645;28;20176;-89
2023/06/16 09:05:25;;;;;;;8.48;6.43;;;20.60;92.50;;;;;;7931500;28;20718;-89
2023/06/16 09:09:13;;;;;;;10.82;6.28;;;20.40;92.80;;;;;;7931979;28;20259;-90
2023/06/16 09:13:00;;;;;;;6.75;5.30;;;20.40;93.00;;;;;;7931786;28;20203;-89
2023/06/16 09:16:55;;;;;;;7.18;5.40;;;20.40;93.00;;;;;;7919317;28;20172;-89
2023/06/16 09:20:53;;;;;;;8.95;7.05;;;20.20;92.40;;;;;;7927979;28;20165;-88
2023/06/16 09:24:39;;;;;;;9.80;6.80;;;20.10;93.80;;;;;;7934464;28;20208;-91
2023/06/16 09:28:35;;;;;;;11.40;6.88;;;20.10;94.70;;;;;;7936086;28;20243;-89
2023/06/16 09:32:37;;;;;;;11.70;6.32;;;20.10;94.60;;;;;;7916610;28;20633;-89
2023/06/16 09:36:27;;;;;;;7.70;5.50;;;20.00;95.20;;;;;;7925895;28;20186;-89
2023/06/16 09:40:43;;;;;;;6.93;4.50;;;20.00;95.70;;;;;;7922197;28;20687;-89
2023/06/16 09:44:30;;;;;;;5.50;4.38;;;20.00;94.90;;;;;;7821767;28;20221;-89
2023/06/16 09:48:27;;;;;;;5.90;3.90;;;20.00;94.40;;;;;;7819994;28;20198;-89
2023/06/16 09:52:15;;;;;;;8.60;5.10;;;20.00;95.10;;;;;;7833738;28;20201;-88
2023/06/16 09:56:11;;;;;;;9.02;3.90;;;20.10;95.50;;;;;;7837084;28;20190;-89
2023/06/16 10:00:08;;;;;;;9.18;4.28;;;20.10;95.60;;;;;;7812108;28;20200;-88
2023/06/16 10:03:55;;;;;;;7.10;5.10;;;20.10;96.50;;;;;;7831660;28;20706;-89
2023/06/16 10:07:45;;;;;;;10.00;4.80;;;20.20;99.90;;;;;;7862200;28;20202;-89
2023/06/16 10:11:31;;;;;;;7.63;4.30;;;19.80;99.90;;;;;;7846408;28;20181;-89
2023/06/16 10:15:27;;;;;;;4.32;3.70;;;19.80;99.90;;;;;;7831811;28;20193;-89
2023/06/16 10:19:13;;;;;;;7.43;3.70;;;19.80;99.90;;;;;;7849227;28;20195;-89
2023/06/16 10:23:03;;;;;;;4.43;3.72;;;19.80;99.90;;;;;;7934596;28;20200;-87
2023/06/16 10:26:52;;;;;;;5.82;4.28;;;19.70;99.90;;;;;;7932851;28;20539;-86
2023/06/16 10:30:38;;;;;;;8.50;3.67;;;19.70;99.90;;;;;;7927960;28;20646;-87
2023/06/16 10:34:25;;;;;;;8.23;3.90;;;19.90;99.90;;;;;;7925940;28;20287;-88
2023/06/16 10:38:10;;;;;;;5.07;4.15;;;19.90;99.90;;;;;;7932956;28;20176;-89
2023/06/16 10:42:00;;;;;;;4.75;3.88;;;19.80;99.90;;;;;;7932755;28;20200;-89
2023/06/16 10:46:15;;;;;;;4.95;3.88;;;19.80;99.90;;;;;;7927611;28;20195;-89
2023/06/16 10:50:02;;;;;;;5.45;3.60;;;19.90;99.90;;;;;;7932936;28;20182;-89
2023/06/16 10:53:51;;;;;;;4.85;3.95;;;19.70;99.90;;;;;;7930795;28;20202;-89
2023/06/16 10:57:36;;;;;;;6.68;4.60;;;19.70;99.90;;;;;;7906797;28;20218;-89
2023/06/16 11:02:14;;;;;;;6.50;5.10;;;19.60;99.90;;;;;;7933631;28;20195;-89
2023/06/16 11:06:01;;;;;;;7.97;4.90;;;19.60;99.90;;;;;;7918690;28;20199;-89
2023/06/16 11:09:58;;;;;;;7.30;4.80;;;19.50;99.90;;;;;;7927793;28;20199;-89
2023/06/16 11:13:45;;;;;;;6.97;4.55;;;19.60;99.90;;;;;;7927825;28;20676;-88
2023/06/16 11:17:31;;;;;;;9.18;3.55;;;19.70;99.90;;;;;;7921311;28;20701;-89
2023/06/16 11:21:30;;;;;;;4.97;4.18;;;19.70;99.90;;;;;;7931615;28;20183;-89
2023/06/16 11:25:16;;;;;;;7.18;4.35;;;19.90;99.90;;;;;;7928762;28;20200;-90
2023/06/16 11:29:04;;;;;;;5.88;4.30;;;19.90;99.90;;;;;;7923584;28;20637;-88
2023/06/16 11:32:56;;;;;;;6.60;4.05;;;20.00;99.90;;;;;;7930928;28;20287;-88
2023/06/16 11:36:51;;;;;;;6.53;4.88;;;19.90;99.90;;;;;;7932888;28;20814;-88
2023/06/16 11:40:36;;;;;;;5.55;4.13;;;19.80;99.80;;;;;;7949369;28;20255;-89
2023/06/16 11:44:22;;;;;;;7.78;4.40;;;19.70;99.90;;;;;;7951218;28;20204;-88
2023/06/16 11:48:09;;;;;;;8.68;5.38;;;19.50;99.90;;;;;;7920216;28;20184;-88
2023/06/16 11:52:27;;;;;;;7.40;4.90;;;19.30;99.90;;;;;;7950759;28;20204;-89
2023/06/16 11:56:15;;;;;;;6.53;4.10;;;19.20;99.90;;;;;;7933787;28;20168;-88
2023/06/16 12:00:03;;;;;;;4.60;4.20;;;19.10;99.90;;;;;;7927314;28;20223;-88
2023/06/16 12:03:49;;;;;;;6.75;3.95;;;19.10;99.90;;;;;;7929637;28;20208;-89
2023/06/16 12:07:35;;;;;;;4.70;3.45;;;18.90;99.90;;;;;;7933770;28;20781;-89
2023/06/16 12:11:28;;;;;;;4.30;3.90;;;18.90;99.90;;;;;;7930564;28;20546;-88
2023/06/16 12:15:18;;;;;;;6.00;4.18;;;19.00;99.90;;;;;;7934845;28;20175;-89
2023/06/16 12:19:21;;;;;;;8.70;3.90;;;19.00;99.90;;;;;;7913415;28;20267;-88
2023/06/16 12:23:11;;;;;;;5.30;3.33;;;18.90;99.90;;;;;;7934750;28;20204;-89
2023/06/16 12:26:56;;;;;;;3.40;3.10;;;18.90;99.90;;;;;;7940811;27;20178;-88
2023/06/16 12:30:48;;;;;;;4.72;3.03;;;18.90;99.90;;;;;;7928508;27;20208;-89
2023/06/16 12:34:38;;;;;;;2.67;2.40;;;19.00;99.90;;;;;;7936172;28;20208;-89
2023/06/16 12:38:32;;;;;;;3.15;2.60;;;19.00;99.90;;;;;;7935808;28;20176;-88
2023/06/16 12:42:40;;;;;;;3.88;3.10;;;19.00;99.90;;;;;;7915463;28;20235;-89
2023/06/16 12:46:25;;;;;;;5.68;4.03;;;19.00;99.90;;;;;;7927262;28;20245;-89
2023/06/16 12:50:24;;;;;;;5.97;3.72;;;19.00;99.90;;;;;;7937870;27;20222;-89
2023/06/16 12:54:11;;;;;;;4.93;3.63;;;19.10;99.90;;;;;;7924257;27;20196;-89
2023/06/16 12:57:57;;;;;;;4.28;3.83;;;19.20;99.90;;;;;;7951500;27;20172;-89
2023/06/16 13:01:48;;;;;;;7.80;4.53;;;19.30;99.90;;;;;;7934796;28;20203;-89
2023/06/16 13:05:34;;;;;;;5.20;4.50;;;19.30;99.90;;;;;;7925447;28;20199;-89
2023/06/16 13:09:20;;;;;;;4.68;4.00;;;19.20;99.90;;;;;;7955868;27;20922;-89
2023/06/16 13:13:06;;;;;;;7.68;5.13;;;19.20;99.90;;;;;;7960750;27;20290;-89
2023/06/16 13:17:04;;;;;;;6.45;4.30;;;19.20;99.90;;;;;;7908255;28;20184;-88
2023/06/16 13:20:50;;;;;;;6.80;4.72;;;19.30;99.90;;;;;;7912672;28;20894;-89
2023/06/16 13:24:37;;;;;;;7.40;4.82;;;19.20;99.90;;;;;;7933287;28;20215;-89
2023/06/16 13:28:36;;;;;;;6.55;4.00;;;19.10;99.90;;;;;;7933618;28;20167;-89
2023/06/16 13:32:22;;;;;;;5.82;4.30;;;19.30;99.90;;;;;;7935947;28;20192;-89
2023/06/16 13:36:19;;;;;;;4.38;3.85;;;19.30;99.90;;;;;;7980657;27;20199;-91
2023/06/16 13:40:05;;;;;;;6.72;4.30;;;19.30;99.90;;;;;;7941849;28;20708;-89
2023/06/16 13:43:52;;;;;;;6.32;4.32;;;19.20;99.90;;;;;;7921601;27;20592;-85
2023/06/16 13:47:38;;;;;;;5.10;4.30;;;19.20;99.90;;;;;;7930364;28;20198;-90
2023/06/16 13:51:33;;;;;;;6.25;4.68;;;19.30;99.90;;;;;;7922925;28;20176;-89
2023/06/16 13:55:19;;;;;;;5.65;3.95;;;19.30;99.90;;;;;;7934127;27;20663;-89
2023/06/16 13:59:04;;;;;;;4.63;4.22;;;19.20;99.90;;;;;;7953132;27;20591;-89
2023/06/16 14:02:51;;;;;;;9.13;4.90;;;19.20;99.90;;;;;;7933374;28;20762;-89
2023/06/16 14:06:37;;;;;;;6.70;4.88;;;19.30;99.90;;;;;;7932496;28;20268;-89
2023/06/16 14:10:23;;;;;;;8.00;4.38;;;19.30;99.90;;;;;;7933923;28;20224;-89
2023/06/16 14:14:08;;;;;;;5.50;4.07;;;19.30;99.90;;;;;;7918630;28;20195;-88
2023/06/16 14:17:55;;;;;;;5.47;3.42;;;19.20;99.90;;;;;;7931835;27;20202;-89
2023/06/16 14:21:40;;;;;;;5.40;3.67;;;19.20;99.90;;;;;;7945464;27;20530;-90
2023/06/16 14:25:26;;;;;;;7.63;3.58;;;19.10;99.90;;;;;;7918634;28;20209;-90
2023/06/16 14:29:12;;;;;;;4.15;3.50;;;19.10;99.90;;;;;;7906993;28;20241;-89
2023/06/16 14:32:57;;;;;;;5.15;4.20;;;19.10;99.90;;;;;;7932191;27;20208;-89
2023/06/16 14:36:43;;;;;;;6.30;4.00;;;19.00;99.90;;;;;;7936792;27;20228;-88
2023/06/16 14:40:29;;;;;;;6.28;4.75;;;18.90;99.90;;;;;;7926334;28;20187;-89
2023/06/16 14:44:15;;;;;;;6.03;5.00;;;18.70;99.90;;;;;;7932883;28;20216;-89
2023/06/16 14:48:00;;;;;;;5.35;4.85;;;18.80;99.90;;;;;;7926285;28;20207;-88
2023/06/16 14:51:46;;;;;;;5.63;3.90;;;18.90;99.90;;;;;;7928136;28;20207;-88
2023/06/16 14:56:05;;;;;;;6.90;5.10;;;18.90;99.90;;;;;;7933683;28;20187;-90
2023/06/16 14:59:51;;;;;;;5.97;4.70;;;18.90;99.90;;;;;;7931486;28;20180;-88
2023/06/16 15:03:43;;;;;;;5.07;4.38;;;18.90;99.90;;;;;;7931057;28;20238;-91
2023/06/16 15:07:29;;;;;;;6.03;5.03;;;19.00;99.90;;;;;;7932740;28;20250;-89
2023/06/16 15:11:15;;;;;;;8.50;4.68;;;19.00;99.90;;;;;;7918390;28;20180;-88
2023/06/16 15:15:00;;;;;;;7.72;5.20;;;18.90;99.90;;;;;;7915021;28;20246;-90
2023/06/16 15:18:49;;;;;;;4.70;4.30;;;18.90;99.90;;;;;;7926098;28;20176;-88
2023/06/16 15:22:35;;;;;;;6.47;4.82;;;18.80;99.90;;;;;;7949676;28;20196;-86
2023/06/16 15:26:21;;;;;;;5.53;4.45;;;18.70;99.90;;;;;;7928619;28;20707;-85
2023/06/16 15:30:08;;;;;;;5.13;4.15;;;18.80;99.90;;;;;;7927143;28;20256;-85
2023/06/16 15:33:54;;;;;;;7.00;4.50;;;18.90;99.90;;;;;;7933264;28;20260;-86
2023/06/16 15:37:39;;;;;;;6.30;4.47;;;18.90;99.90;;;;;;7921090;28;20180;-89
2023/06/16 15:41:43;;;;;;;6.28;4.80;;;18.90;99.90;;;;;;7901987;28;20196;-89
2023/06/16 15:45:34;;;;;;;6.53;4.43;;;18.90;99.90;;;;;;7918112;28;20223;-89
2023/06/16 15:49:27;;;;;;;8.07;5.25;;;18.80;99.90;;;;;;7936571;28;20179;-87
2023/06/16 15:53:13;;;;;;;10.23;6.68;;;18.80;99.90;;;;;;7935941;28;20899;-82
2023/06/16 15:56:59;;;;;;;7.20;5.68;;;18.80;99.90;;;;;;7928035;28;20586;-90
2023/06/16 16:00:46;;;;;;;6.50;5.65;;;18.90;99.90;;;;;;7925113;28;20172;-89
2023/06/16 16:04:32;;;;;;;7.43;5.53;;;18.90;99.90;;;;;;7936061;28;20196;-90
2023/06/16 16:08:19;;;;;;;9.90;5.75;;;18.90;99.90;;;;;;7937923;28;20180;-91
2023/06/16 16:12:05;;;;;;;7.25;5.25;;;18.70;99.90;;;;;;7924573;28;20262;-91
2023/06/16 16:15:50;;;;;;;8.20;5.70;;;18.70;99.90;;;;;;7935865;28;20180;-89
2023/06/16 16:19:41;;;;;;;7.63;5.43;;;18.80;99.90;;;;;;7936073;28;20595;-89
2023/06/16 16:23:27;;;;;;;6.00;5.25;;;18.70;99.90;;;;;;7925582;28;20216;-89
2023/06/16 16:27:12;;;;;;;5.70;4.82;;;18.80;99.90;;;;;;7926276;28;20178;-89
2023/06/16 16:30:59;;;;;;;8.27;5.75;;;18.90;99.90;;;;;;7910029;28;20184;-91
2023/06/16 16:34:45;;;;;;;7.90;6.03;;;18.90;99.90;;;;;;7933452;28;20203;-89
2023/06/16 16:38:32;;;;;;;7.80;6.10;;;18.80;99.90;;;;;;7928590;28;20261;-88
2023/06/16 16:42:17;;;;;;;8.43;6.25;;;18.70;99.90;;;;;;7935768;28;20241;-88
2023/06/16 16:46:03;;;;;;;9.07;5.40;;;18.70;99.90;;;;;;7917491;28;20192;-89
2023/06/16 16:49:48;;;;;;;7.13;6.05;;;18.70;99.90;;;;;;7907456;28;20193;-89
2023/06/16 16:53:34;;;;;;;9.10;6.88;;;18.60;99.90;;;;;;7929915;28;20230;-89
2023/06/16 16:57:20;;;;;;;11.18;6.45;;;18.50;99.90;;;;;;7927530;28;20203;-88
2023/06/16 17:01:05;;;;;;;7.25;5.93;;;18.30;99.90;;;;;;7952173;28;20198;-91
2023/06/16 17:04:51;;;;;;;13.82;7.68;;;18.30;99.90;;;;;;7953260;28;20712;-89
2023/06/16 17:08:37;;;;;;;7.40;6.20;;;18.30;99.90;;;;;;7934891;28;20627;-89
2023/06/16 17:12:22;;;;;;;8.15;6.30;;;18.30;99.90;;;;;;7936068;28;20199;-88
2023/06/16 17:16:08;;;;;;;8.23;6.75;;;18.40;99.90;;;;;;7935330;28;20648;-89
2023/06/16 17:19:54;;;;;;;10.27;7.57;;;18.40;99.90;;;;;;7933347;28;20825;-89
2023/06/16 17:23:40;;;;;;;9.68;6.88;;;18.40;99.90;;;;;;7931797;28;20223;-89
2023/06/16 17:27:37;;;;;;;14.40;7.65;;;18.40;99.90;;;;;;7929188;28;20183;-88
2023/06/16 17:31:23;;;;;;;9.13;7.38;;;18.40;99.90;;;;;;7903654;28;20192;-88
2023/06/16 17:35:09;;;;;;;9.00;7.10;;;18.30;99.90;;;;;;7904960;28;20188;-89
2023/06/16 17:38:55;;;;;;;9.23;5.88;;;18.30;99.90;;;;;;7904215;28;20752;-89
2023/06/16 17:42:41;;;;;;;7.00;5.53;;;18.30;99.90;;;;;;7914598;28;20576;-89
2023/06/16 17:46:35;;;;;;;8.50;7.60;;;18.30;99.90;;;;;;7903636;28;20305;-89
2023/06/16 17:50:21;;;;;;;11.05;8.13;;;18.30;99.90;;;;;;7911621;28;20190;-89
2023/06/16 17:54:13;;;;;;;8.32;7.15;;;18.40;99.90;;;;;;7923781;28;20292;-88
2023/06/16 17:58:08;;;;;;;7.50;5.80;;;18.40;99.90;;;;;;7930662;28;20563;-89
2023/06/16 18:01:54;;;;;;;7.35;5.38;;;18.30;99.90;;;;;;7933860;28;20195;-89
2023/06/16 18:05:40;;;;;;;7.90;5.63;;;18.30;99.90;;;;;;7936577;28;20206;-90
2023/06/16 18:09:25;;;;;;;9.07;6.78;;;18.40;99.90;;;;;;7901939;28;20180;-89
2023/06/16 18:13:11;;;;;;;8.18;6.65;;;18.20;99.90;;;;;;7902236;28;20201;-89
2023/06/16 18:17:01;;;;;;;11.48;5.45;;;18.20;99.90;;;;;;7922425;28;20179;-89
2023/06/16 18:20:47;;;;;;;10.48;5.90;;;18.20;99.90;;;;;;7934414;28;20160;-88
2023/06/16 18:24:32;;;;;;;7.57;5.25;;;18.30;99.90;;;;;;7932181;28;20752;-89
2023/06/16 18:28:22;;;;;;;6.70;5.18;;;18.20;99.90;;;;;;7916017;28;20259;-89
2023/06/16 18:32:13;;;;;;;6.93;5.28;;;18.30;99.90;;;;;;7913578;28;20818;-89
2023/06/16 18:36:03;;;;;;;7.68;5.25;;;18.40;99.90;;;;;;7921639;28;20173;-90
2023/06/16 18:39:57;;;;;;;7.80;5.22;;;18.30;99.90;;;;;;7916751;28;20740;-89
2023/06/16 18:43:48;;;;;;;8.43;6.50;;;18.10;99.90;;;;;;7934677;28;20208;-89
2023/06/16 18:47:47;;;;;;;11.02;6.18;;;17.90;99.90;;;;;;7918176;28;20165;-89
2023/06/16 18:51:35;;;;;;;6.72;5.28;;;17.80;99.90;;;;;;7913178;28;20214;-90
2023/06/16 18:55:40;;;;;;;8.38;6.00;;;17.80;99.90;;;;;;7929165;28;20194;-89
2023/06/16 18:59:28;;;;;;;8.80;5.55;;;17.90;99.90;;;;;;7924928;28;20584;-88
2023/06/16 19:03:14;;;;;;;6.50;5.60;;;17.80;99.90;;;;;;7919494;28;20201;-89
2023/06/16 19:07:12;;;;;;;6.32;5.00;;;17.90;99.90;;;;;;7914596;28;20290;-88
2023/06/16 19:11:14;;;;;;;6.53;4.88;;;18.00;99.90;;;;;;7922967;28;20579;-89
2023/06/16 19:15:07;;;;;;;5.65;4.70;;;18.10;99.90;;;;;;7926217;28;20688;-89
2023/06/16 19:18:53;;;;;;;8.77;4.97;;;18.20;99.90;;;;;;7919421;28;20207;-89
2023/06/16 19:22:58;;;;;;;7.45;5.50;;;18.30;99.90;;;;;;7930668;28;20214;-90
2023/06/16 19:26:44;;;;;;;7.40;5.53;;;18.30;99.90;;;;;;7940579;28;20188;-89
2023/06/16 19:30:43;;;;;;;7.10;5.03;;;18.30;99.90;;;;;;7907346;28;20191;-88
2023/06/16 19:34:47;;;;;;;7.18;5.38;;;18.30;99.90;;;;;;7914704;28;20628;-89
2023/06/16 19:38:33;;;;;;;8.63;5.45;;;18.30;99.90;;;;;;7919170;28;20187;-88
2023/06/16 19:42:18;;;;;;;6.55;4.70;;;18.30;99.90;;;;;;7919522;28;20272;-89
2023/06/16 19:46:04;;;;;;;6.18;5.05;;;18.30;99.90;;;;;;7928997;28;20196;-89